Piper Memorial (LHV)
Lock Haven, PA
Field Elevation: 556
Lat: 41°08.15N  Long: 77°25.34W
CTAF/Unicom Freq: 122.8000
   
    
Weather Advisories
2016-12-05   18:30 Z
Altimeter 30.00" Hg
Wind 300° @ 10 KT
Gusts 16 KT
Visibility --
Temperature 7° C (45° F)
Dewpoint -3° C (27° F)
Relative Humidity 50%
Density Altitude --
Condensation Altitude 5,300 feet
Wind Chill: 4° C (39° F)
Wind and Runways
Indicated Runway = 27
Headwind = 9 kt
Crosswind = 5 kt
History
 
 
 
More Info
All DigiWx sites map
Weather Radar
NOAA Forecast
 
Airport IQ 5010
(PS81) Robert Packer Hospital
(74PN) Altoona Regional
 
about DigiWx
 
FAA Disclaimer: The data displayed is for advisory purposes only and is not to be used for flight planning or operations. For official data, please call (not available) to hear the current automated AWOS voice message.
  METAR LHV 051830Z AUTO 30010G16KT 07/M03 A3000